Richmond North's Hourly Summary for Sunday, July 8, 2018
Hour Temp
(f)
RH
(%)
Solar Rad.
(MJ/m2)
Rainfall
(in)
Wind
(mph)
7/8/2018 12:00 AM 74 97 0 0 0
7/8/2018 1:00 AM 73 98 0 0 0
7/8/2018 2:00 AM 73 99 0 0 0
7/8/2018 3:00 AM 72 99 0 0 0
7/8/2018 4:00 AM 72 99 0 0 0
7/8/2018 5:00 AM 71 99 0 0 0
7/8/2018 6:00 AM 72 99 0.04 0 0
7/8/2018 7:00 AM 76 90 0.52 0 2.15
7/8/2018 8:00 AM 79 79 1.07 0 2.6
7/8/2018 9:00 AM 83 66 1.3 0 0.84
7/8/2018 10:00 AM 83 67 2.05 0 1.37
7/8/2018 11:00 AM 86 55 3.08 0 1.96
7/8/2018 12:00 PM 80 62 0.49 0.08 2.66
7/8/2018 1:00 PM 76 85 0.32 0.01 1.11
7/8/2018 2:00 PM 76 90 0.73 0.01 2.99
7/8/2018 3:00 PM 77 89 0.85 0 3.13
7/8/2018 4:00 PM 78 87 0.96 0 2.18
7/8/2018 5:00 PM 79 83 0.65 0 1.96
7/8/2018 6:00 PM 79 83 0.45 0 2
7/8/2018 7:00 PM 78 84 0.2 0 1.97
7/8/2018 8:00 PM 77 89 0.02 0 1.02
7/8/2018 9:00 PM 76 91 0 0 0.55
7/8/2018 10:00 PM 75 92 0 0 0.13
7/8/2018 11:00 PM 75 94 0 0 0.01
Data Summary 76 86 12.73 0.10 1.19